Time;durP1;ratioP1;P1;durP2;ratioP2;P2;SDS_P1;SDS_P2;PMS_P1;PMS_P2;Temp;Humidity;BMP_temperature;BMP_pressure;BME280_temperature;BME280_humidity;BME280_pressure;Samples;Min_cycle;Max_cycle;Signal;HPM_P1;HPM_P2
2021/09/29 00:01:39;;;;;;;18.40;5.90;;;;;;;5.70;78.95;100142.27;112443;1190;72802;-21
2021/09/29 00:04:07;;;;;;;23.30;6.50;;;;;;;5.42;79.53;100137.40;112523;1190;60838;-22
2021/09/29 00:06:36;;;;;;;9.20;3.00;;;;;;;5.21;80.72;100140.34;112245;1190;60876;-22
2021/09/29 00:09:04;;;;;;;25.30;5.50;;;;;;;5.62;79.83;100141.89;112454;1190;74341;-21
2021/09/29 00:11:32;;;;;;;24.90;5.30;;;;;;;6.12;78.03;100145.77;112466;1190;75988;-22
2021/09/29 00:14:01;;;;;;;20.20;6.10;;;;;;;6.14;77.86;100144.48;112531;1190;73781;-21
2021/09/29 00:16:49;;;;;;;22.20;7.00;;;;;;;5.85;78.78;100151.27;112417;1190;62800;-22
2021/09/29 00:19:18;;;;;;;27.40;8.40;;;;;;;5.59;79.36;100147.54;112469;1190;60862;-22
2021/09/29 00:21:47;;;;;;;26.10;8.00;;;;;;;5.35;79.57;100150.30;112530;1190;75174;-22
2021/09/29 00:24:15;;;;;;;19.90;5.30;;;;;;;5.17;79.63;100151.00;112457;1192;74858;-22
2021/09/29 00:26:43;;;;;;;21.30;6.10;;;;;;;5.58;79.96;100151.55;112551;1190;74014;-22
2021/09/29 00:29:12;;;;;;;30.40;10.90;;;;;;;6.14;77.57;100148.26;112394;1190;60826;-22
2021/09/29 00:31:40;;;;;;;22.00;7.20;;;;;;;6.17;76.24;100141.59;112500;1190;60880;-22
2021/09/29 00:36:44;;;;;;;17.70;6.60;;;;;;;5.66;75.92;100139.33;112528;1190;75820;-18
2021/09/29 00:39:12;;;;;;;16.20;5.80;;;;;;;5.34;76.56;100137.41;112211;1190;74023;-21
2021/09/29 00:41:42;;;;;;;18.00;6.10;;;;;;;5.06;77.31;100138.92;112459;1190;60822;-24
2021/09/29 00:44:10;;;;;;;11.70;3.40;;;;;;;4.80;79.74;100141.83;112494;1190;60842;-23
2021/09/29 00:46:39;;;;;;;15.60;4.80;;;;;;;5.16;80.27;100142.98;112469;1190;74788;-25
2021/09/29 00:49:08;;;;;;;16.30;6.80;;;;;;;5.72;77.64;100139.95;112405;1190;74323;-27
2021/09/29 00:51:36;;;;;;;16.80;6.80;;;;;;;5.78;76.69;100140.00;112446;1190;72742;-25
2021/09/29 00:54:05;;;;;;;17.30;5.70;;;;;;;5.61;76.63;100142.48;112441;1190;60898;-24
2021/09/29 00:56:34;;;;;;;21.70;5.70;;;;;;;5.32;76.90;100138.50;112529;1190;60814;-24
2021/09/29 00:59:03;;;;;;;20.20;5.00;;;;;;;5.02;78.61;100140.98;112477;1192;75177;-24
2021/09/29 01:01:32;;;;;;;12.60;3.40;;;;;;;4.76;80.46;100139.41;112250;1192;74102;-25
2021/09/29 01:04:01;;;;;;;30.70;5.40;;;;;;;5.07;80.81;100139.38;112200;1190;71801;-25
2021/09/29 01:06:39;;;;;;;18.70;4.50;;;;;;;5.59;78.57;100144.29;112246;1190;60825;-25
2021/09/29 01:09:14;;;;;;;15.10;4.20;;;;;;;5.63;77.65;100145.84;112393;1192;61429;-25
2021/09/29 01:12:10;;;;;;;15.50;4.80;;;;;;;5.39;78.46;100142.55;112448;1190;75597;-23
2021/09/29 01:14:46;;;;;;;31.30;10.90;;;;;;;5.04;79.57;100141.91;112331;1190;75670;-23
2021/09/29 01:17:23;;;;;;;89.50;30.20;;;;;;;4.72;80.90;100139.77;112175;1192;73748;-23
2021/09/29 01:20:13;;;;;;;55.50;16.60;;;;;;;4.45;82.55;100146.30;112463;1190;62488;-22
2021/09/29 01:22:41;;;;;;;32.50;9.70;;;;;;;4.99;81.08;100142.61;112421;1192;61413;-23
2021/09/29 01:25:18;;;;;;;19.60;6.50;;;;;;;5.39;79.01;100142.02;112516;1190;73764;-21
2021/09/29 01:27:47;;;;;;;12.10;5.90;;;;;;;5.44;77.99;100141.27;112473;1192;75671;-22
2021/09/29 01:30:15;;;;;;;11.90;5.00;;;;;;;5.13;79.38;100143.08;112221;1190;73123;-22
2021/09/29 01:32:43;;;;;;;21.50;6.00;;;;;;;4.77;81.16;100143.16;112460;1190;61203;-21
2021/09/29 01:35:11;;;;;;;28.20;4.80;;;;;;;4.53;81.89;100145.80;112429;1190;60787;-21
2021/09/29 01:37:40;;;;;;;9.90;2.60;;;;;;;4.39;82.41;100142.77;112396;1190;75527;-22
2021/09/29 01:40:09;;;;;;;15.20;3.70;;;;;;;4.81;81.78;100140.77;112462;1190;74763;-22
2021/09/29 01:42:38;;;;;;;14.10;5.10;;;;;;;5.32;79.71;100141.27;112432;1192;71842;-22
2021/09/29 01:45:07;;;;;;;12.30;3.80;;;;;;;5.35;78.91;100139.10;112533;1190;61974;-22
2021/09/29 01:47:36;;;;;;;15.00;3.50;;;;;;;5.08;79.77;100140.39;112400;1192;60809;-23
2021/09/29 01:50:05;;;;;;;9.90;3.10;;;;;;;4.91;79.43;100139.84;112500;1190;74013;-24
2021/09/29 01:52:36;;;;;;;17.00;3.90;;;;;;;4.69;79.44;100141.76;112476;1190;74256;-23
2021/09/29 01:55:05;;;;;;;6.80;2.10;;;;;;;4.49;80.41;100146.15;112330;1190;73023;-23
2021/09/29 01:57:36;;;;;;;10.60;3.60;;;;;;;4.85;80.22;100144.73;112426;1190;60857;-24
2021/09/29 02:00:06;;;;;;;14.80;3.40;;;;;;;5.32;78.64;100144.73;112243;1190;60863;-24
2021/09/29 02:02:39;;;;;;;9.00;2.90;;;;;;;5.26;78.43;100144.97;112277;1191;75749;-22
2021/09/29 02:05:08;;;;;;;10.40;3.50;;;;;;;5.07;78.24;100147.27;112206;1192;75574;-23
2021/09/29 02:07:38;;;;;;;13.80;3.70;;;;;;;4.73;79.95;100143.33;112465;1190;73137;-23
2021/09/29 02:10:10;;;;;;;;;;;;;;;4.35;81.45;100147.86;112177;1193;60880;-22
2021/09/29 02:12:38;;;;;;;13.10;4.10;;;;;;;4.06;82.70;100149.84;112581;1190;60809;-22
2021/09/29 02:15:08;;;;;;;7.20;2.10;;;;;;;3.85;83.76;100145.06;112489;1190;75006;-23
2021/09/29 02:17:36;;;;;;;9.50;3.30;;;;;;;4.31;83.12;100142.53;112449;1190;75525;-22
2021/09/29 02:20:05;;;;;;;11.10;3.40;;;;;;;5.01;80.35;100145.14;112564;1190;71960;-22
2021/09/29 02:22:33;;;;;;;5.50;2.70;;;;;;;5.14;78.58;100144.45;112275;1190;60760;-22
2021/09/29 02:25:02;;;;;;;9.50;3.50;;;;;;;4.93;78.60;100141.16;112459;1180;61360;-22
2021/09/29 02:27:30;;;;;;;14.50;5.20;;;;;;;4.56;80.12;100139.83;112533;1190;74087;-23
2021/09/29 02:29:59;;;;;;;10.40;4.80;;;;;;;4.23;81.61;100144.54;112470;1190;73590;-23
2021/09/29 02:32:27;;;;;;;14.50;3.50;;;;;;;4.07;81.69;100148.92;112493;1190;72084;-22
2021/09/29 02:34:55;;;;;;;16.10;4.10;;;;;;;4.48;81.40;100150.66;112478;1190;60823;-22
2021/09/29 02:37:24;;;;;;;13.10;4.70;;;;;;;5.03;78.93;100152.61;112500;1190;60810;-22
2021/09/29 02:39:52;;;;;;;13.90;5.20;;;;;;;5.07;78.26;100153.52;112513;1192;75027;-22
2021/09/29 02:42:20;;;;;;;13.50;5.50;;;;;;;4.85;78.80;100152.83;112534;1190;75637;-24
2021/09/29 02:44:49;;;;;;;17.70;7.50;;;;;;;4.65;78.81;100154.14;112509;1190;73529;-24
2021/09/29 02:47:17;;;;;;;19.00;7.10;;;;;;;4.43;79.41;100154.12;112481;1192;60835;-22
2021/09/29 02:49:45;;;;;;;15.80;4.80;;;;;;;4.26;80.14;100157.65;112503;1190;60857;-22
2021/09/29 02:52:14;;;;;;;13.50;5.70;;;;;;;4.64;79.99;100157.08;112389;1190;74329;-22
2021/09/29 02:54:42;;;;;;;24.70;8.10;;;;;;;5.18;78.49;100159.27;112493;1190;75723;-22
2021/09/29 02:57:10;;;;;;;14.80;6.20;;;;;;;5.13;78.37;100158.26;112448;1192;73541;-22
2021/09/29 02:59:39;;;;;;;20.00;7.70;;;;;;;4.94;78.84;100158.14;112405;1190;60788;-22
2021/09/29 03:02:07;;;;;;;16.40;8.70;;;;;;;4.69;79.58;100157.42;112519;1190;60793;-22
2021/09/29 03:04:37;;;;;;;17.60;9.00;;;;;;;4.43;80.73;100153.41;112500;1190;72528;-22
2021/09/29 03:07:08;;;;;;;18.30;6.10;;;;;;;4.22;81.75;100157.83;112449;1190;75425;-22
2021/09/29 03:09:37;;;;;;;19.20;7.40;;;;;;;4.68;81.47;100158.98;112484;1190;74072;-21
2021/09/29 03:12:06;;;;;;;18.80;7.60;;;;;;;5.30;79.08;100159.42;112493;1190;60848;-22
2021/09/29 03:14:34;;;;;;;14.40;6.10;;;;;;;5.43;78.12;100158.20;112445;1190;61941;-22
2021/09/29 03:17:04;;;;;;;12.40;6.50;;;;;;;5.29;78.30;100159.14;112555;1190;74380;-22
2021/09/29 03:19:32;;;;;;;21.10;10.70;;;;;;;5.03;79.12;100156.08;112537;1190;74754;-22
2021/09/29 03:22:02;;;;;;;16.40;8.90;;;;;;;4.68;80.44;100159.36;112513;1192;74179;-23
2021/09/29 03:24:31;;;;;;;16.70;6.20;;;;;;;4.51;80.58;100156.36;112500;1190;61859;-22
2021/09/29 03:26:59;;;;;;;13.10;5.30;;;;;;;4.87;80.91;100158.42;112559;1190;60886;-22
2021/09/29 03:29:28;;;;;;;13.40;6.20;;;;;;;5.27;78.96;100161.83;112526;1190;76576;-22
2021/09/29 03:31:56;;;;;;;11.30;5.10;;;;;;;5.38;78.33;100158.43;112480;1190;75680;-22
2021/09/29 03:34:25;;;;;;;20.20;9.60;;;;;;;5.25;78.79;100158.61;112488;1192;73453;-22
2021/09/29 03:36:53;;;;;;;17.20;9.60;;;;;;;4.86;80.14;100156.02;112488;1190;61712;-22
2021/09/29 03:39:21;;;;;;;20.40;10.40;;;;;;;4.69;80.16;100161.17;112519;1190;60855;-21
2021/09/29 03:41:50;;;;;;;9.20;4.90;;;;;;;4.46;81.58;100158.14;112548;1190;74377;-21
2021/09/29 03:44:18;;;;;;;13.50;7.30;;;;;;;4.95;80.92;100158.98;112532;1190;75695;-22
2021/09/29 03:46:47;;;;;;;4.70;2.40;;;;;;;5.46;78.78;100162.20;112528;1190;73181;-23
2021/09/29 03:49:15;;;;;;;5.30;2.90;;;;;;;5.51;78.18;100159.94;112491;1190;60781;-21
2021/09/29 03:51:43;;;;;;;3.90;2.40;;;;;;;5.32;78.59;100157.29;112530;1192;60813;-21
2021/09/29 03:54:12;;;;;;;4.40;2.30;;;;;;;5.05;78.62;100156.31;112546;1190;75361;-21
2021/09/29 03:56:40;;;;;;;3.80;2.50;;;;;;;4.79;79.02;100155.81;112485;1190;75435;-21
2021/09/29 03:59:10;;;;;;;3.40;1.80;;;;;;;4.52;80.32;100157.02;112451;1192;73797;-21
2021/09/29 04:01:38;;;;;;;4.40;2.20;;;;;;;4.93;79.98;100154.92;112486;1190;60845;-23
2021/09/29 04:04:12;;;;;;;4.50;2.20;;;;;;;5.42;77.95;100156.70;112513;1190;60832;-23
2021/09/29 04:06:40;;;;;;;4.90;2.90;;;;;;;5.46;77.85;100163.42;112431;1192;73667;-21
2021/09/29 04:09:08;;;;;;;6.00;2.80;;;;;;;5.20;77.96;100161.73;112476;1190;76119;-21
2021/09/29 04:11:39;;;;;;;4.10;3.10;;;;;;;4.84;79.36;100169.72;112541;1190;73411;-21
2021/09/29 04:14:07;;;;;;;6.10;3.50;;;;;;;4.63;79.99;100169.17;112537;1190;60808;-24
2021/09/29 04:16:35;;;;;;;4.30;2.20;;;;;;;4.47;80.62;100168.56;112494;1190;61776;-23
2021/09/29 04:19:05;;;;;;;4.00;2.60;;;;;;;4.81;80.24;100166.56;112495;1190;75228;-22
2021/09/29 04:21:33;;;;;;;5.90;2.80;;;;;;;5.30;78.71;100165.29;112484;1192;74831;-22
2021/09/29 04:24:03;;;;;;;3.60;2.80;;;;;;;5.35;78.23;100168.89;112534;1190;73974;-22
2021/09/29 04:26:32;;;;;;;5.20;3.20;;;;;;;4.97;78.99;100168.01;112439;1192;60800;-22
2021/09/29 04:29:00;;;;;;;5.60;3.30;;;;;;;4.78;79.60;100168.27;112556;1190;60854;-21
2021/09/29 04:31:29;;;;;;;5.50;2.80;;;;;;;4.62;79.88;100169.38;112457;1190;74379;-21
2021/09/29 04:33:57;;;;;;;6.20;3.30;;;;;;;4.50;80.28;100175.70;112512;1190;74643;-21
2021/09/29 04:36:25;;;;;;;9.20;5.70;;;;;;;4.91;80.59;100174.45;112483;1190;73943;-21
2021/09/29 04:38:54;;;;;;;9.60;4.40;;;;;;;5.41;78.36;100176.39;112527;1190;60754;-21
2021/09/29 04:41:23;;;;;;;6.10;3.70;;;;;;;5.16;78.66;100176.21;112564;1190;60786;-21
2021/09/29 04:43:52;;;;;;;8.90;4.30;;;;;;;4.68;80.41;100177.75;112535;1190;74952;-21
2021/09/29 04:46:20;;;;;;;11.10;4.80;;;;;;;4.43;81.54;100177.84;112496;1192;74865;-21
2021/09/29 04:48:48;;;;;;;6.50;2.60;;;;;;;4.27;82.45;100181.88;112514;1190;73073;-22
2021/09/29 04:51:17;;;;;;;2.50;1.40;;;;;;;4.21;82.38;100182.25;112493;1190;61444;-21
2021/09/29 04:53:45;;;;;;;8.40;4.00;;;;;;;4.73;81.61;100182.73;112509;1190;60793;-22
2021/09/29 04:56:14;;;;;;;8.20;4.30;;;;;;;5.15;79.89;100184.84;112490;1190;73967;-22
2021/09/29 04:58:43;;;;;;;4.70;3.40;;;;;;;5.33;79.25;100184.65;112531;1190;75369;-22
2021/09/29 05:01:15;;;;;;;6.80;4.00;;;;;;;4.95;80.16;100187.86;112491;1190;73093;-22
2021/09/29 05:03:44;;;;;;;7.00;5.10;;;;;;;4.81;80.87;100190.86;112385;1190;61723;-22
2021/09/29 05:06:12;;;;;;;7.90;3.60;;;;;;;4.69;81.27;100185.64;112544;1183;61428;-22
2021/09/29 05:08:40;;;;;;;6.70;3.20;;;;;;;4.74;81.98;100191.79;112453;1192;74470;-22
2021/09/29 05:11:28;;;;;;;9.30;3.80;;;;;;;5.35;80.69;100190.73;112250;1192;75916;-21
2021/09/29 05:13:57;;;;;;;7.60;3.80;;;;;;;5.36;79.88;100189.84;112231;1192;73886;-21
2021/09/29 05:16:25;;;;;;;9.20;4.70;;;;;;;5.28;80.45;100195.48;112587;1190;61142;-21
2021/09/29 05:18:53;;;;;;;3.10;2.40;;;;;;;5.22;80.45;100198.00;112478;1190;60913;-21
2021/09/29 05:21:22;;;;;;;2.90;1.90;;;;;;;5.09;80.81;100202.83;112541;1190;75168;-21
2021/09/29 05:23:51;;;;;;;5.10;3.10;;;;;;;5.50;81.02;100204.73;112537;1190;75627;-21
2021/09/29 05:26:19;;;;;;;3.40;2.50;;;;;;;6.03;78.87;100205.98;112498;1190;74362;-21
2021/09/29 05:28:50;;;;;;;5.40;2.50;;;;;;;6.11;78.25;100206.70;112438;1192;60902;-21
2021/09/29 05:31:18;;;;;;;6.40;3.10;;;;;;;5.87;79.18;100207.70;112285;1190;62211;-21
2021/09/29 05:33:47;;;;;;;4.90;3.30;;;;;;;5.84;79.20;100208.33;112528;1190;74889;-21
2021/09/29 05:36:16;;;;;;;5.20;2.80;;;;;;;5.64;79.93;100208.98;112536;1190;75307;-21
2021/09/29 05:38:44;;;;;;;6.10;3.10;;;;;;;5.57;80.59;100216.39;112511;1190;74410;-21
2021/09/29 05:41:14;;;;;;;6.70;3.60;;;;;;;6.02;80.26;100210.33;112471;1190;61516;-21
2021/09/29 05:43:43;;;;;;;6.30;3.60;;;;;;;6.38;78.91;100215.66;112438;1190;60880;-21
2021/09/29 05:46:12;;;;;;;5.80;3.80;;;;;;;6.37;78.69;100214.31;112496;1192;74328;-21
2021/09/29 05:48:43;;;;;;;6.50;3.80;;;;;;;6.04;80.00;100213.17;112477;1190;75431;-21
2021/09/29 05:51:11;;;;;;;5.90;2.60;;;;;;;5.92;80.40;100214.36;112572;1190;74273;-21
2021/09/29 05:53:40;;;;;;;3.70;2.00;;;;;;;5.89;80.78;100211.58;112526;1190;62035;-21
2021/09/29 05:56:10;;;;;;;5.50;2.20;;;;;;;6.48;79.86;100210.86;112498;1190;60822;-22
2021/09/29 05:58:40;;;;;;;5.40;2.60;;;;;;;7.20;78.11;100214.27;112487;1190;75341;-21
2021/09/29 06:01:08;;;;;;;3.80;2.80;;;;;;;7.35;76.80;100215.42;112519;1190;74764;-21
2021/09/29 06:03:37;;;;;;;14.60;6.70;;;;;;;7.22;77.14;100218.63;112524;1190;73436;-21
2021/09/29 06:06:05;;;;;;;4.70;2.90;;;;;;;6.99;77.61;100220.25;112447;1191;60972;-20
2021/09/29 06:08:38;;;;;;;3.80;2.30;;;;;;;6.72;78.70;100217.89;112433;1190;61447;-21
2021/09/29 06:11:06;;;;;;;5.10;2.20;;;;;;;6.46;80.54;100219.60;112513;1192;75337;-20
2021/09/29 06:13:35;;;;;;;7.20;3.00;;;;;;;7.14;79.33;100221.80;112571;1190;75460;-21
2021/09/29 06:16:07;;;;;;;4.30;2.60;;;;;;;7.54;77.58;100224.70;112261;1192;72765;-21
2021/09/29 06:18:36;;;;;;;4.20;2.90;;;;;;;7.50;77.48;100223.16;112514;1190;60799;-21
2021/09/29 06:21:07;;;;;;;7.80;4.40;;;;;;;7.38;77.94;100224.27;112474;1190;61765;-21
2021/09/29 06:23:36;;;;;;;4.00;3.30;;;;;;;7.28;78.53;100219.08;112456;1190;74263;-21
2021/09/29 06:26:04;;;;;;;5.60;3.50;;;;;;;7.15;79.01;100221.72;112506;1190;74644;-21
2021/09/29 06:28:34;;;;;;;7.80;3.80;;;;;;;7.52;78.52;100223.57;112438;1192;74170;-21
2021/09/29 06:31:03;;;;;;;5.30;3.30;;;;;;;7.88;77.33;100223.50;112486;1190;61988;-20
2021/09/29 06:33:32;;;;;;;4.60;2.80;;;;;;;7.88;77.19;100226.11;112452;1192;60894;-21
2021/09/29 06:36:01;;;;;;;5.00;3.10;;;;;;;7.68;77.81;100226.60;112296;1192;75754;-20
2021/09/29 06:38:29;;;;;;;3.90;2.90;;;;;;;7.42;78.40;100227.52;112275;1192;75912;-21
2021/09/29 06:40:57;;;;;;;5.40;2.90;;;;;;;7.34;79.40;100230.87;112465;1190;72653;-20
2021/09/29 06:43:26;;;;;;;2.40;2.10;;;;;;;7.89;77.98;100231.91;112546;1190;60835;-21
2021/09/29 06:45:55;;;;;;;2.60;1.90;;;;;;;8.11;76.69;100235.65;112510;1190;60821;-20
2021/09/29 06:48:23;;;;;;;3.70;2.80;;;;;;;7.89;77.15;100233.98;112507;1190;74210;-20
2021/09/29 06:50:52;;;;;;;3.60;2.70;;;;;;;7.69;77.29;100240.55;112525;1190;75904;-20
2021/09/29 06:53:22;;;;;;;3.60;2.30;;;;;;;7.49;78.13;100240.16;112507;1190;73734;-20
2021/09/29 06:55:51;;;;;;;1.40;1.00;;;;;;;7.58;78.93;100248.17;112172;1190;63183;-20
2021/09/29 06:58:20;;;;;;;4.20;3.00;;;;;;;8.01;77.49;100245.64;112518;1190;60829;-20
2021/09/29 07:00:49;;;;;;;4.30;3.00;;;;;;;8.09;76.61;100243.18;112530;1191;74190;-20
2021/09/29 07:03:20;;;;;;;4.90;2.80;;;;;;;7.96;77.25;100244.02;112535;1190;75908;-20
2021/09/29 07:05:49;;;;;;;6.50;4.50;;;;;;;7.78;77.88;100245.27;112488;1191;72594;-20
2021/09/29 07:08:20;;;;;;;4.40;2.60;;;;;;;7.60;78.69;100245.84;112499;1191;62072;-20
2021/09/29 07:11:08;;;;;;;3.90;2.60;;;;;;;8.02;78.44;100249.23;112448;1190;62896;-21
2021/09/29 07:13:36;;;;;;;4.50;3.10;;;;;;;8.39;77.03;100249.20;112473;1191;74375;-20
2021/09/29 07:16:05;;;;;;;5.50;3.30;;;;;;;8.29;76.71;100255.47;112530;1190;75397;-20
2021/09/29 07:18:50;;;;;;;4.40;2.80;;;;;;;8.00;77.73;100258.49;112241;1193;73487;-20
2021/09/29 07:21:19;;;;;;;3.70;2.20;;;;;;;7.76;78.79;100262.98;112540;1190;60818;-20
2021/09/29 07:23:47;;;;;;;6.00;3.40;;;;;;;7.78;79.46;100263.05;112533;1190;60895;-20
2021/09/29 07:26:15;;;;;;;4.80;3.50;;;;;;;8.36;78.09;100261.98;112496;1190;75222;-20
2021/09/29 07:28:44;;;;;;;4.40;3.50;;;;;;;8.55;77.11;100256.02;112568;1190;74626;-20
2021/09/29 07:31:13;;;;;;;5.70;3.70;;;;;;;8.48;77.84;100257.42;112533;1192;72733;-21
2021/09/29 07:33:42;;;;;;;5.20;3.70;;;;;;;8.41;77.78;100258.27;112557;1190;60823;-19
2021/09/29 07:36:11;;;;;;;5.50;3.60;;;;;;;8.22;78.32;100262.77;112483;1190;61973;-20
2021/09/29 07:38:40;;;;;;;8.60;5.90;;;;;;;8.66;77.55;100259.77;112540;1190;75708;-18
2021/09/29 07:41:09;;;;;;;10.50;5.60;;;;;;;8.95;76.71;100256.48;112540;1191;74912;-17
2021/09/29 07:43:37;;;;;;;8.00;3.90;;;;;;;8.98;76.73;100258.37;112505;1190;73215;-22
2021/09/29 07:46:05;;;;;;;5.10;3.70;;;;;;;8.77;76.97;100260.57;112500;1190;61747;-19
2021/09/29 07:48:33;;;;;;;6.80;4.20;;;;;;;8.61;77.72;100263.34;112497;1190;60822;-22
2021/09/29 07:51:02;;;;;;;8.80;4.40;;;;;;;8.47;78.42;100267.00;112536;1190;75203;-17
2021/09/29 07:53:31;;;;;;;7.70;4.30;;;;;;;8.97;77.56;100262.77;112398;1192;74503;-25
2021/09/29 07:55:59;;;;;;;10.70;6.00;;;;;;;9.40;76.51;100263.29;112501;1190;73582;-20
2021/09/29 07:58:28;;;;;;;8.60;5.00;;;;;;;9.45;75.68;100259.20;112498;1190;60832;-23
2021/09/29 08:01:00;;;;;;;8.60;6.00;;;;;;;9.12;76.33;100259.17;112478;1190;60809;-22
2021/09/29 08:03:30;;;;;;;8.30;5.20;;;;;;;8.92;77.22;100260.64;112545;1190;75176;-22
2021/09/29 08:06:02;;;;;;;8.70;3.80;;;;;;;8.71;78.38;100262.27;112505;1190;74721;-23
2021/09/29 08:08:52;;;;;;;9.30;5.50;;;;;;;9.37;77.24;100263.69;112501;1190;74183;-22
2021/09/29 08:11:20;;;;;;;12.70;7.30;;;;;;;9.81;75.49;100265.47;112495;1191;61461;-24
2021/09/29 08:13:49;;;;;;;6.10;3.80;;;;;;;9.74;75.46;100266.04;112511;1190;61035;-22
2021/09/29 08:16:17;;;;;;;7.50;4.30;;;;;;;9.48;75.64;100268.73;112488;1190;74234;-23
2021/09/29 08:18:59;;;;;;;11.00;7.70;;;;;;;9.22;76.88;100268.14;112481;1190;74701;-24
2021/09/29 08:21:29;;;;;;;8.40;5.50;;;;;;;9.11;77.09;100272.92;112488;1191;73829;-22
2021/09/29 08:24:19;;;;;;;8.40;5.10;;;;;;;9.35;77.00;100267.59;112302;1192;61753;-20
2021/09/29 08:29:35;;;;;;;5.60;3.80;;;;;;;9.48;76.14;100270.17;112481;1190;74399;-20
2021/09/29 08:32:08;;;;;;;6.50;3.70;;;;;;;9.06;77.34;100264.53;112512;1191;76179;-20
2021/09/29 08:37:36;;;;;;;6.40;4.40;;;;;;;9.59;75.84;100266.77;112514;1190;60786;-20
2021/09/29 08:40:17;;;;;;;5.30;3.70;;;;;;;9.54;76.03;100270.16;112438;1191;61563;-20
2021/09/29 08:43:04;;;;;;;6.70;4.90;;;;;;;9.47;75.95;100274.70;112490;1191;74186;-20
2021/09/29 08:48:23;;;;;;;2.50;1.70;;;;;;;9.15;77.31;100269.71;112536;1190;74593;-20
2021/09/29 09:18:34;;;;;;;9.10;6.50;;;;;;;9.88;75.80;100273.21;112397;1192;63495;-21
2021/09/29 09:21:11;;;;;;;9.80;7.20;;;;;;;10.40;73.78;100273.61;112432;1192;61418;-21
2021/09/29 09:23:41;;;;;;;9.10;6.10;;;;;;;10.52;73.43;100275.32;112264;1192;74429;-21
2021/09/29 09:26:31;;;;;;;7.50;4.50;;;;;;;10.29;73.23;100277.91;112431;1192;75384;-21
2021/09/29 09:29:07;;;;;;;10.70;6.90;;;;;;;9.99;74.34;100278.11;112515;1190;72995;-21
2021/09/29 09:31:36;;;;;;;9.70;5.90;;;;;;;9.69;75.16;100278.99;112433;1192;63089;-21
2021/09/29 09:34:08;;;;;;;11.70;7.30;;;;;;;9.93;75.03;100282.27;112292;1190;61494;-21
2021/09/29 09:36:37;;;;;;;12.60;7.80;;;;;;;10.17;74.18;100282.77;112234;1192;75235;-21
2021/09/29 09:39:15;;;;;;;9.20;5.50;;;;;;;10.07;74.43;100282.86;112473;1192;74571;-23
2021/09/29 09:41:45;;;;;;;14.00;9.50;;;;;;;9.90;74.46;100279.70;112256;1191;72402;-22
2021/09/29 09:44:22;;;;;;;8.40;4.80;;;;;;;9.72;75.22;100279.52;112213;1192;62984;-22
2021/09/29 09:46:57;;;;;;;8.70;6.20;;;;;;;10.17;75.08;100284.20;112415;1192;61673;-22
2021/09/29 09:49:25;;;;;;;10.50;7.20;;;;;;;10.54;73.66;100282.48;112482;1192;74371;-21
2021/09/29 09:51:57;;;;;;;9.10;6.10;;;;;;;10.47;73.19;100283.27;112459;1194;74779;-22
2021/09/29 09:54:33;;;;;;;9.20;5.70;;;;;;;10.38;73.18;100281.91;112442;1192;73782;-22
2021/09/29 09:57:02;;;;;;;9.80;7.50;;;;;;;10.12;73.59;100283.61;112432;1190;61932;-22
2021/09/29 09:59:32;;;;;;;7.60;3.80;;;;;;;9.99;74.51;100285.05;112554;1190;60809;-22
2021/09/29 10:02:00;;;;;;;8.30;4.50;;;;;;;10.47;73.67;100282.71;112504;1190;74964;-22
2021/09/29 10:04:29;;;;;;;8.30;5.30;;;;;;;10.99;72.00;100282.10;112567;1190;75699;-22
2021/09/29 10:06:57;;;;;;;7.20;3.90;;;;;;;11.04;71.60;100287.04;112495;1190;73019;-22
2021/09/29 10:09:34;;;;;;;7.60;5.60;;;;;;;10.84;71.72;100280.48;112487;1190;60819;-22
2021/09/29 10:15:31;;;;;;;9.00;6.00;;;;;;;10.39;72.45;100279.43;112464;1191;74249;-21
2021/09/29 10:23:28;;;;;;;6.90;5.20;;;;;;;11.41;70.86;100284.19;112432;1193;61555;-22
2021/09/29 10:28:40;;;;;;;12.30;8.60;;;;;;;11.02;71.23;100281.23;112429;1192;74996;-22
2021/09/29 10:33:52;;;;;;;12.20;8.10;;;;;;;10.75;71.55;100282.29;112452;1192;71224;-22
2021/09/29 10:36:39;;;;;;;5.70;3.80;;;;;;;10.64;72.41;100285.23;112452;1192;61221;-23
2021/09/29 11:30:05;;;;;;;17.00;10.60;;;;;;;11.07;69.19;100268.63;112456;1190;71947;-22
2021/09/29 11:32:43;;;;;;;12.50;8.20;;;;;;;10.92;69.39;100266.25;112470;1190;62174;-22
2021/09/29 12:11:45;;;;;;;11.90;6.90;;;;;;;13.73;63.13;100235.77;112449;1190;74683;-22
2021/09/29 12:14:17;;;;;;;8.70;6.20;;;;;;;13.63;63.30;100232.53;112250;1192;61908;-22
2021/09/29 12:16:49;;;;;;;10.40;8.20;;;;;;;13.57;63.35;100229.48;112449;1190;61258;-22
2021/09/29 12:19:33;;;;;;;9.00;7.10;;;;;;;13.62;63.49;100227.56;112428;1192;75685;-22
2021/09/29 12:22:06;;;;;;;8.80;6.80;;;;;;;13.74;62.97;100226.14;112386;1192;74834;-22
2021/09/29 12:24:45;;;;;;;8.70;5.90;;;;;;;13.97;62.47;100227.73;112471;1190;73750;-22
2021/09/29 12:30:35;;;;;;;8.90;6.40;;;;;;;14.52;61.10;100229.61;112476;1190;60850;-22
2021/09/29 12:36:33;;;;;;;8.80;7.00;;;;;;;14.19;60.87;100230.23;112098;1190;75672;-22
2021/09/29 12:39:03;;;;;;;10.10;7.20;;;;;;;13.89;61.25;100229.84;112431;1190;73817;-22
2021/09/29 12:41:32;;;;;;;8.30;5.90;;;;;;;13.73;61.99;100228.11;112423;1191;60908;-22
2021/09/29 12:44:04;;;;;;;8.60;6.50;;;;;;;13.66;62.20;100226.95;112495;1190;61801;-23
2021/09/29 12:46:35;;;;;;;9.30;6.90;;;;;;;13.51;61.97;100219.51;112231;1191;75251;-22
2021/09/29 12:49:12;;;;;;;8.00;6.20;;;;;;;13.36;62.15;100217.42;112429;1190;74649;-21
2021/09/29 12:51:43;;;;;;;9.70;6.30;;;;;;;13.23;62.42;100216.46;112450;1192;73999;-21
2021/09/29 12:54:17;;;;;;;15.60;7.80;;;;;;;13.12;62.52;100216.23;112405;1191;61439;-23
2021/09/29 12:56:46;;;;;;;9.20;7.50;;;;;;;13.00;63.13;100214.31;112510;1190;60904;-24
2021/09/29 12:59:15;;;;;;;7.80;5.50;;;;;;;12.85;63.11;100213.11;112466;1190;75084;-24
2021/09/29 13:01:43;;;;;;;12.30;6.50;;;;;;;13.01;63.93;100213.56;112437;1190;76123;-24
2021/09/29 13:04:12;;;;;;;14.90;7.20;;;;;;;13.46;62.52;100210.26;112435;1190;72766;-23
2021/09/29 13:06:41;;;;;;;8.90;6.20;;;;;;;13.49;61.40;100208.85;112446;1190;60804;-23
2021/09/29 13:09:10;;;;;;;10.80;6.80;;;;;;;13.32;61.57;100207.58;112492;1190;61456;-23
2021/09/29 13:11:38;;;;;;;12.60;9.00;;;;;;;13.09;62.29;100213.63;112515;1190;74252;-24
2021/09/29 13:14:07;;;;;;;13.00;8.70;;;;;;;12.87;63.09;100211.57;112547;1190;75782;-22
2021/09/29 13:16:35;;;;;;;12.50;9.30;;;;;;;12.68;63.66;100205.42;112509;1190;73152;-22
2021/09/29 13:19:10;;;;;;;9.40;7.00;;;;;;;12.46;64.08;100205.24;112572;1190;60832;-22
2021/09/29 13:22:00;;;;;;;10.80;7.70;;;;;;;12.27;64.63;100203.28;112445;1190;60889;-23
2021/09/29 13:25:37;;;;;;;11.30;7.50;;;;;;;12.09;64.77;100200.69;112441;1190;75164;-22
2021/09/29 13:38:30;;;;;;;7.50;4.90;;;;;;;13.36;62.39;100190.38;112456;1193;74205;-22
2021/09/29 13:40:59;;;;;;;7.20;5.50;;;;;;;13.21;62.44;100189.61;112448;1190;74575;-22
2021/09/29 13:43:27;;;;;;;9.20;5.50;;;;;;;12.97;62.92;100192.89;112407;1193;73719;-22
2021/09/29 13:45:56;;;;;;;9.20;6.70;;;;;;;12.75;63.39;100189.10;112411;1192;61152;-21
2021/09/29 13:48:24;;;;;;;6.80;5.30;;;;;;;12.53;63.65;100190.31;112392;1190;61728;-22
2021/09/29 13:50:52;;;;;;;8.90;5.30;;;;;;;12.32;64.44;100187.95;112368;1193;74082;-22
2021/09/29 13:53:23;;;;;;;7.60;5.40;;;;;;;12.14;64.65;100188.70;112492;1190;75642;-22
2021/09/29 13:55:56;;;;;;;7.40;5.10;;;;;;;11.96;65.20;100190.92;112488;1190;74024;-22
2021/09/29 14:14:54;;;;;;;5.40;4.50;;;;;;;12.83;63.67;100183.15;112517;1190;61686;-22
2021/09/29 14:28:52;;;;;;;7.90;4.10;;;;;;;12.40;64.17;100180.27;112554;1182;61276;-22
2021/09/29 14:32:25;;;;;;;3.10;2.80;;;;;;;12.25;64.34;100181.27;112533;1190;74182;-22
2021/09/29 14:34:19;;;;;;;2.70;2.20;;;;;;;12.07;64.63;100175.44;112283;1192;74645;-24
2021/09/29 14:36:49;;;;;;;3.60;3.00;;;;;;;12.12;64.86;100170.34;112472;1183;72565;-22
2021/09/29 14:39:18;;;;;;;5.40;3.00;;;;;;;12.62;63.83;100172.08;112482;1190;60790;-22
2021/09/29 14:41:46;;;;;;;8.60;4.80;;;;;;;12.78;63.09;100171.63;112436;1192;61716;-22